createdAt,value
2018-12-03T00:00:20.836Z,9.97
2018-12-03T00:02:50.324Z,9.94
2018-12-03T00:05:18.861Z,9.94
2018-12-03T00:07:49.337Z,10.00
2018-12-03T00:10:19.427Z,10.03
2018-12-03T00:12:48.185Z,9.99
2018-12-03T00:15:17.422Z,10.07
2018-12-03T00:17:46.363Z,10.10
2018-12-03T00:20:15.648Z,10.16
2018-12-03T00:22:44.743Z,10.13
2018-12-03T00:25:13.187Z,10.16
2018-12-03T00:27:49.146Z,10.15
2018-12-03T00:30:17.568Z,10.19
2018-12-03T00:32:45.897Z,10.19
2018-12-03T00:35:14.357Z,10.25
2018-12-03T00:37:42.675Z,10.31
2018-12-03T00:40:11.056Z,10.20
2018-12-03T00:42:39.326Z,10.20
2018-12-03T00:45:07.810Z,10.24
2018-12-03T00:47:36.163Z,10.16
2018-12-03T00:50:04.729Z,10.11
2018-12-03T00:52:33.128Z,10.09
2018-12-03T00:55:01.458Z,10.11
2018-12-03T00:57:29.932Z,10.15
2018-12-03T00:59:59.794Z,10.17
2018-12-03T01:02:28.143Z,10.17
2018-12-03T01:04:56.583Z,10.15
2018-12-03T01:07:25.107Z,10.23
2018-12-03T01:09:53.563Z,10.23
2018-12-03T01:12:22.028Z,10.34
2018-12-03T01:14:50.354Z,10.32
2018-12-03T01:17:18.783Z,10.33
2018-12-03T01:19:47.113Z,10.34
2018-12-03T01:22:15.540Z,10.36
2018-12-03T01:24:44.182Z,10.33
2018-12-03T01:27:12.724Z,10.53
2018-12-03T01:29:41.206Z,10.44
2018-12-03T01:32:09.924Z,10.47
2018-12-03T01:34:38.323Z,10.51
2018-12-03T01:37:06.654Z,10.50
2018-12-03T01:39:35.020Z,10.66
2018-12-03T01:42:03.365Z,10.58
2018-12-03T01:44:31.744Z,10.49
2018-12-03T01:47:00.149Z,10.61
2018-12-03T01:49:28.590Z,10.59
2018-12-03T01:51:57.058Z,10.57
2018-12-03T01:54:25.728Z,10.47
2018-12-03T01:56:54.180Z,10.55
2018-12-03T01:59:22.775Z,10.65
2018-12-03T02:01:51.245Z,10.60
2018-12-03T02:04:20.033Z,10.64
2018-12-03T02:06:48.355Z,10.57
2018-12-03T02:09:16.846Z,10.59
2018-12-03T02:11:45.592Z,10.57
2018-12-03T02:14:13.906Z,10.50
2018-12-03T02:16:42.342Z,10.17
2018-12-03T02:22:15.906Z,10.37
2018-12-03T02:24:44.651Z,10.44
2018-12-03T02:27:12.990Z,10.32
2018-12-03T02:29:41.332Z,10.21
2018-12-03T02:32:09.851Z,10.31
2018-12-03T02:34:38.582Z,10.38
2018-12-03T02:37:07.058Z,10.27
2018-12-03T02:39:35.771Z,10.36
2018-12-03T02:42:04.080Z,10.39
2018-12-03T02:44:32.344Z,10.40
2018-12-03T02:47:00.715Z,10.45
2018-12-03T02:49:30.368Z,10.49
2018-12-03T02:51:58.962Z,10.46
2018-12-03T02:54:27.252Z,10.48
2018-12-03T02:56:55.567Z,10.42
2018-12-03T02:59:23.997Z,10.44
2018-12-03T03:01:52.399Z,10.42
2018-12-03T03:04:20.736Z,10.47
2018-12-03T03:06:49.445Z,10.48
2018-12-03T03:09:17.922Z,10.54
2018-12-03T03:11:46.406Z,10.58
2018-12-03T03:14:14.739Z,10.56
2018-12-03T03:16:43.160Z,10.64
2018-12-03T03:19:11.607Z,10.65
2018-12-03T03:21:40.120Z,10.75
2018-12-03T03:24:08.615Z,10.70
2018-12-03T03:26:37.215Z,10.67
2018-12-03T03:29:06.814Z,10.70
2018-12-03T03:31:35.266Z,10.67
2018-12-03T03:34:03.592Z,10.72
2018-12-03T03:36:31.935Z,10.70
2018-12-03T03:39:00.286Z,10.72
2018-12-03T03:41:28.637Z,10.70
2018-12-03T03:43:58.367Z,10.68
2018-12-03T03:46:25.629Z,10.67
2018-12-03T03:48:53.993Z,10.68
2018-12-03T03:51:22.320Z,10.66
2018-12-03T03:53:50.691Z,10.64
2018-12-03T03:56:19.006Z,10.65
2018-12-03T03:58:47.394Z,10.64
2018-12-03T04:01:15.714Z,10.62
2018-12-03T04:03:44.147Z,10.65
2018-12-03T04:06:12.460Z,10.64
2018-12-03T04:08:40.728Z,10.60
2018-12-03T04:11:09.037Z,10.60
2018-12-03T04:13:37.462Z,10.63
2018-12-03T04:16:05.784Z,10.60
2018-12-03T04:18:34.285Z,10.60
2018-12-03T04:21:03.054Z,10.57
2018-12-03T04:23:31.376Z,10.56
2018-12-03T04:25:59.718Z,10.58
2018-12-03T04:28:28.017Z,10.58
2018-12-03T04:30:56.313Z,10.53
2018-12-03T04:33:24.627Z,10.42
2018-12-03T04:35:53.124Z,10.47
2018-12-03T04:38:21.439Z,10.48
2018-12-03T04:40:49.741Z,10.47
2018-12-03T04:43:18.051Z,10.31
2018-12-03T04:45:46.402Z,10.52
2018-12-03T04:48:15.161Z,10.52
2018-12-03T04:50:43.470Z,10.48
2018-12-03T04:53:11.763Z,10.45
2018-12-03T04:55:40.073Z,10.44
2018-12-03T04:58:08.412Z,10.66
2018-12-03T05:03:33.506Z,10.66
2018-12-03T05:06:02.713Z,10.68
2018-12-03T05:08:31.910Z,10.69
2018-12-03T05:11:01.244Z,10.67
2018-12-03T05:13:30.471Z,10.69
2018-12-03T05:15:59.797Z,10.74
2018-12-03T05:18:29.089Z,10.73
2018-12-03T05:20:58.496Z,10.72
2018-12-03T05:23:27.591Z,10.72
2018-12-03T05:25:56.806Z,10.74
2018-12-03T05:28:25.996Z,10.75
2018-12-03T05:30:55.342Z,10.78
2018-12-03T05:33:24.698Z,10.80
2018-12-03T05:35:53.917Z,10.79
2018-12-03T05:38:23.108Z,10.75
2018-12-03T05:40:52.531Z,10.77
2018-12-03T05:43:21.794Z,10.79
2018-12-03T05:45:50.986Z,10.79
2018-12-03T05:48:20.080Z,10.78
2018-12-03T05:50:49.294Z,10.82
2018-12-03T05:53:18.497Z,10.83
2018-12-03T05:55:47.796Z,10.83
2018-12-03T05:58:16.851Z,10.78
2018-12-03T06:00:46.102Z,10.77
2018-12-03T06:03:24.655Z,10.82
2018-12-03T06:05:53.920Z,10.76
2018-12-03T06:08:23.332Z,10.79
2018-12-03T06:10:52.417Z,10.77
2018-12-03T06:13:21.624Z,10.84
2018-12-03T06:15:50.999Z,10.83
2018-12-03T06:18:20.205Z,10.81
2018-12-03T06:20:49.604Z,10.80
2018-12-03T06:23:18.804Z,10.78
2018-12-03T06:25:47.998Z,10.75
2018-12-03T06:28:17.066Z,10.78
2018-12-03T06:30:46.311Z,10.75
2018-12-03T06:33:15.728Z,10.74
2018-12-03T06:35:45.040Z,10.74
2018-12-03T06:38:15.526Z,10.76
2018-12-03T06:40:43.299Z,10.74
2018-12-03T06:43:12.670Z,10.71
2018-12-03T06:45:41.924Z,10.73
2018-12-03T06:48:14.322Z,10.69
2018-12-03T06:50:43.571Z,10.71
2018-12-03T06:53:12.947Z,10.73
2018-12-03T06:55:42.258Z,10.75
2018-12-03T06:58:11.454Z,10.76
2018-12-03T07:00:41.013Z,10.77
2018-12-03T07:03:10.246Z,10.75
2018-12-03T07:05:39.679Z,10.76
2018-12-03T07:08:09.625Z,10.81
2018-12-03T07:10:39.039Z,10.79
2018-12-03T07:13:10.039Z,10.80
2018-12-03T07:15:41.021Z,10.86
2018-12-03T07:18:10.812Z,10.79
2018-12-03T07:20:40.119Z,10.85
2018-12-03T07:23:09.468Z,10.88
2018-12-03T07:25:38.774Z,10.90
2018-12-03T07:28:07.989Z,10.94
2018-12-03T07:30:37.421Z,10.95
2018-12-03T07:33:06.633Z,10.98
2018-12-03T07:35:35.767Z,11.00
2018-12-03T07:38:05.001Z,10.96
2018-12-03T07:40:34.275Z,10.96
2018-12-03T07:43:03.665Z,10.98
2018-12-03T07:45:32.981Z,10.96
2018-12-03T07:48:02.175Z,10.97
2018-12-03T07:50:31.479Z,10.98
2018-12-03T07:53:00.834Z,11.02
2018-12-03T07:55:30.482Z,11.00
2018-12-03T07:58:02.760Z,11.04
2018-12-03T08:00:45.143Z,11.00
2018-12-03T08:03:14.443Z,11.05
2018-12-03T08:05:43.767Z,11.04
2018-12-03T08:08:12.842Z,11.03
2018-12-03T08:10:43.413Z,11.04
2018-12-03T08:13:13.847Z,11.03
2018-12-03T08:15:43.139Z,11.08
2018-12-03T08:18:14.205Z,11.10
2018-12-03T08:20:45.866Z,11.10
2018-12-03T08:23:18.584Z,11.15
2018-12-03T08:25:47.792Z,11.13
2018-12-03T08:28:16.862Z,11.16
2018-12-03T08:30:45.983Z,11.14
2018-12-03T08:33:15.091Z,11.16
2018-12-03T08:35:44.291Z,11.13
2018-12-03T08:38:13.556Z,11.24
2018-12-03T08:40:42.993Z,11.25
2018-12-03T08:44:15.247Z,11.29
2018-12-03T08:46:44.554Z,11.31
2018-12-03T08:49:13.874Z,11.34
2018-12-03T08:51:43.155Z,11.38
2018-12-03T08:54:12.230Z,11.38
2018-12-03T08:56:46.231Z,11.38
2018-12-03T08:59:15.561Z,11.42
2018-12-03T09:01:44.682Z,11.50
2018-12-03T09:04:16.197Z,11.58
2018-12-03T09:06:45.299Z,11.60
2018-12-03T09:09:15.958Z,11.59
2018-12-03T09:11:49.743Z,11.63
2018-12-03T09:14:20.155Z,11.55
2018-12-03T09:16:49.369Z,11.61
2018-12-03T09:19:18.746Z,11.59
2018-12-03T09:21:48.065Z,11.57
2018-12-03T09:24:17.168Z,11.55
2018-12-03T09:26:46.459Z,11.60
2018-12-03T09:29:15.550Z,11.59
2018-12-03T09:31:44.782Z,11.64
2018-12-03T09:34:14.040Z,11.66
2018-12-03T09:36:43.269Z,11.65
2018-12-03T09:39:16.669Z,11.65
2018-12-03T09:41:46.512Z,11.71
2018-12-03T09:44:16.018Z,11.75
2018-12-03T09:46:45.287Z,11.77
2018-12-03T09:49:14.551Z,11.73
2018-12-03T09:51:44.215Z,11.71
2018-12-03T09:54:13.372Z,11.76
2018-12-03T09:56:50.644Z,11.74
2018-12-03T09:59:23.245Z,11.72
2018-12-03T10:01:56.231Z,11.69
2018-12-03T10:04:31.799Z,11.69
2018-12-03T10:07:01.272Z,11.74
2018-12-03T10:09:35.686Z,11.71
2018-12-03T10:12:04.990Z,11.73
2018-12-03T10:14:34.176Z,11.71
2018-12-03T10:17:03.598Z,11.74
2018-12-03T10:19:32.865Z,11.76
2018-12-03T10:22:09.045Z,11.86
2018-12-03T10:24:38.575Z,11.90
2018-12-03T10:27:11.576Z,12.01
2018-12-03T10:29:41.292Z,12.13
2018-12-03T10:32:11.470Z,12.06
2018-12-03T10:34:40.571Z,12.07
2018-12-03T10:37:09.770Z,12.08
2018-12-03T10:39:39.123Z,12.06
2018-12-03T10:42:13.822Z,12.02
2018-12-03T10:44:42.889Z,12.04
2018-12-03T10:47:12.092Z,12.01
2018-12-03T10:49:41.495Z,12.28
2018-12-03T10:52:10.718Z,12.30
2018-12-03T10:54:42.251Z,12.33
2018-12-03T10:57:12.109Z,12.39
2018-12-03T10:59:41.626Z,12.79
2018-12-03T11:02:15.710Z,12.80
2018-12-03T11:04:49.083Z,14.19
2018-12-03T11:07:18.467Z,15.05
2018-12-03T11:09:47.775Z,17.64
2018-12-03T11:12:17.023Z,15.36
2018-12-03T11:14:46.259Z,15.87
2018-12-03T11:17:15.576Z,17.29
2018-12-03T11:19:47.949Z,15.04
2018-12-03T11:22:21.631Z,16.51
2018-12-03T11:24:50.836Z,14.88
2018-12-03T11:27:21.131Z,13.90
2018-12-03T11:29:50.295Z,14.86
2018-12-03T11:32:20.963Z,14.78
2018-12-03T11:34:49.942Z,17.17
2018-12-03T11:37:20.483Z,18.14
2018-12-03T11:39:56.200Z,21.28
2018-12-03T11:42:27.627Z,21.25
2018-12-03T11:44:56.771Z,21.46
2018-12-03T11:47:26.016Z,23.11
2018-12-03T11:49:54.962Z,24.05
2018-12-03T11:52:24.343Z,22.53
2018-12-03T11:54:53.597Z,21.76
2018-12-03T11:57:22.683Z,19.39
2018-12-03T11:59:51.862Z,16.94
2018-12-03T12:02:21.133Z,18.57
2018-12-03T12:04:50.256Z,19.95
2018-12-03T12:07:19.267Z,21.14
2018-12-03T12:09:48.487Z,19.55
2018-12-03T12:12:17.835Z,18.46
2018-12-03T12:14:47.142Z,17.13
2018-12-03T12:17:16.487Z,16.45
2018-12-03T12:19:45.678Z,18.00
2018-12-03T12:22:14.883Z,15.86
2018-12-03T12:24:44.125Z,14.79
2018-12-03T12:27:13.427Z,15.93
2018-12-03T12:29:42.749Z,15.24
2018-12-03T12:32:11.871Z,15.10
2018-12-03T12:34:41.130Z,15.19
2018-12-03T12:37:10.476Z,14.58
2018-12-03T12:39:39.730Z,14.20
2018-12-03T12:42:09.211Z,14.56
2018-12-03T12:44:38.679Z,14.06
2018-12-03T12:47:08.223Z,13.97
2018-12-03T12:49:37.348Z,13.97
2018-12-03T12:52:07.235Z,13.44
2018-12-03T12:54:36.578Z,13.38
2018-12-03T12:57:05.929Z,13.24
2018-12-03T12:59:35.090Z,13.42
2018-12-03T13:02:04.306Z,13.07
2018-12-03T13:04:33.529Z,13.05
2018-12-03T13:07:02.898Z,12.94
2018-12-03T13:09:32.205Z,12.94
2018-12-03T13:12:01.290Z,13.08
2018-12-03T13:14:30.594Z,13.29
2018-12-03T13:16:59.899Z,13.20
2018-12-03T13:19:29.379Z,13.23
2018-12-03T13:21:58.510Z,13.20
2018-12-03T13:24:27.697Z,13.11
2018-12-03T13:26:57.395Z,13.09
2018-12-03T13:29:26.688Z,13.05
2018-12-03T13:31:55.694Z,12.90
2018-12-03T13:34:24.933Z,12.86
2018-12-03T13:36:54.247Z,12.95
2018-12-03T13:39:23.519Z,12.95
2018-12-03T13:41:52.895Z,12.84
2018-12-03T13:44:22.083Z,12.79
2018-12-03T13:46:51.516Z,12.76
2018-12-03T13:49:20.591Z,12.75
2018-12-03T13:51:49.697Z,12.62
2018-12-03T13:54:18.989Z,12.55
2018-12-03T13:56:48.293Z,12.39
2018-12-03T13:59:17.569Z,12.43
2018-12-03T14:01:47.960Z,12.26
2018-12-03T14:04:16.486Z,12.37
2018-12-03T14:06:54.860Z,12.28
2018-12-03T14:11:37.919Z,12.16
2018-12-03T14:14:15.627Z,12.26
2018-12-03T14:16:51.896Z,12.19
2018-12-03T14:19:23.727Z,12.02
2018-12-03T14:22:06.821Z,12.09
2018-12-03T14:24:42.903Z,11.98
2018-12-03T14:27:12.163Z,11.87
2018-12-03T14:29:41.971Z,11.85
2018-12-03T14:32:11.170Z,11.87
2018-12-03T14:34:40.530Z,11.80
2018-12-03T14:37:10.130Z,11.80
2018-12-03T14:39:39.335Z,11.79
2018-12-03T14:42:08.667Z,11.66
2018-12-03T14:44:37.943Z,11.60
2018-12-03T14:47:07.290Z,11.64
2018-12-03T14:49:36.570Z,11.61
2018-12-03T14:52:05.769Z,11.57
2018-12-03T14:54:34.911Z,11.46
2018-12-03T14:57:04.282Z,11.38
2018-12-03T14:59:33.378Z,11.30
2018-12-03T15:02:02.660Z,11.25
2018-12-03T15:04:32.023Z,11.03
2018-12-03T15:07:01.251Z,11.00
2018-12-03T15:09:30.450Z,10.86
2018-12-03T15:11:59.903Z,10.98
2018-12-03T15:14:29.112Z,10.88
2018-12-03T15:16:58.535Z,10.92
2018-12-03T15:19:27.512Z,10.86
2018-12-03T15:21:56.751Z,11.04
2018-12-03T15:24:26.139Z,11.08
2018-12-03T15:26:55.381Z,11.01
2018-12-03T15:29:24.619Z,11.00
2018-12-03T15:31:54.000Z,10.96
2018-12-03T15:34:23.110Z,10.89
2018-12-03T15:36:52.527Z,10.81
2018-12-03T15:39:21.841Z,10.70
2018-12-03T15:41:51.139Z,10.63
2018-12-03T15:44:20.225Z,10.57
2018-12-03T15:46:49.586Z,10.46
2018-12-03T15:49:18.739Z,10.36
2018-12-03T15:51:48.139Z,10.34
2018-12-03T15:54:17.347Z,10.30
2018-12-03T15:56:46.756Z,10.22
2018-12-03T15:59:16.013Z,10.15
2018-12-03T16:01:45.363Z,10.17
2018-12-03T16:04:14.522Z,10.07
2018-12-03T16:06:44.011Z,9.98
2018-12-03T16:09:43.437Z,10.18
2018-12-03T16:12:11.010Z,10.25
2018-12-03T16:14:38.651Z,10.35
2018-12-03T16:17:06.290Z,10.41
2018-12-03T16:19:33.856Z,10.38
2018-12-03T16:22:01.472Z,10.36
2018-12-03T16:24:29.042Z,10.25
2018-12-03T16:26:56.674Z,10.31
2018-12-03T16:29:24.246Z,10.30
2018-12-03T16:31:52.723Z,10.20
2018-12-03T16:34:20.287Z,10.23
2018-12-03T16:36:47.867Z,10.08
2018-12-03T16:39:15.449Z,10.27
2018-12-03T16:41:43.057Z,10.15
2018-12-03T16:44:10.633Z,10.19
2018-12-03T16:46:38.273Z,10.18
2018-12-03T16:49:05.866Z,10.20
2018-12-03T16:51:33.447Z,10.14
2018-12-03T16:54:01.044Z,10.15
2018-12-03T16:56:28.642Z,10.19
2018-12-03T16:58:56.305Z,10.17
2018-12-03T17:01:23.855Z,10.22
2018-12-03T17:03:51.498Z,10.30
2018-12-03T17:06:19.066Z,10.32
2018-12-03T17:08:46.772Z,10.39
2018-12-03T17:11:14.318Z,10.35
2018-12-03T17:13:42.247Z,10.26
2018-12-03T17:16:09.827Z,10.09
2018-12-03T17:18:37.562Z,10.12
2018-12-03T17:21:05.232Z,10.29
2018-12-03T17:23:33.335Z,10.39
2018-12-03T17:26:00.891Z,10.05
2018-12-03T17:28:28.663Z,9.95
2018-12-03T17:30:57.191Z,9.89
2018-12-03T17:33:24.789Z,9.95
2018-12-03T17:35:52.354Z,10.01
2018-12-03T17:38:20.019Z,10.00
2018-12-03T17:40:47.783Z,9.81
2018-12-03T17:43:15.348Z,9.66
2018-12-03T17:45:42.901Z,9.50
2018-12-03T17:48:10.579Z,9.39
2018-12-03T17:50:38.126Z,9.23
2018-12-03T17:53:06.710Z,9.34
2018-12-03T17:55:34.264Z,9.25
2018-12-03T17:58:01.995Z,9.05
2018-12-03T18:00:29.747Z,8.89
2018-12-03T18:02:57.396Z,8.56
2018-12-03T18:05:25.066Z,8.61
2018-12-03T18:07:52.612Z,8.61
2018-12-03T18:10:20.150Z,8.55
2018-12-03T18:12:47.699Z,8.50
2018-12-03T18:15:15.427Z,8.53
2018-12-03T18:17:43.207Z,8.54
2018-12-03T18:20:10.773Z,8.22
2018-12-03T18:22:38.335Z,8.02
2018-12-03T18:25:05.995Z,8.17
2018-12-03T18:27:33.655Z,8.10
2018-12-03T18:30:01.217Z,8.32
2018-12-03T18:32:29.256Z,7.95
2018-12-03T18:34:56.825Z,7.84
2018-12-03T18:37:24.498Z,8.15
2018-12-03T18:39:52.086Z,7.90
2018-12-03T18:42:19.651Z,8.41
2018-12-03T18:44:47.287Z,8.01
2018-12-03T18:47:14.830Z,8.01
2018-12-03T18:49:42.570Z,7.79
2018-12-03T18:52:10.257Z,8.32
2018-12-03T18:54:37.826Z,7.93
2018-12-03T18:57:05.379Z,8.19
2018-12-03T18:59:32.941Z,8.18
2018-12-03T19:02:00.492Z,7.95
2018-12-03T19:04:28.059Z,7.81
2018-12-03T19:06:55.599Z,7.80
2018-12-03T19:09:23.165Z,7.81
2018-12-03T19:11:50.850Z,7.47
2018-12-03T19:14:18.415Z,7.87
2018-12-03T19:16:45.995Z,7.96
2018-12-03T19:19:13.708Z,7.75
2018-12-03T19:21:41.401Z,7.52
2018-12-03T19:24:08.963Z,8.11
2018-12-03T19:26:36.894Z,7.75
2018-12-03T19:29:04.443Z,7.74
2018-12-03T19:31:32.989Z,7.68
2018-12-03T19:34:01.369Z,7.74
2018-12-03T19:36:29.826Z,7.94
2018-12-03T19:38:59.038Z,8.28
2018-12-03T19:41:27.012Z,7.87
2018-12-03T19:43:55.013Z,8.30
2018-12-03T19:46:22.822Z,8.03
2018-12-03T19:48:50.484Z,7.92
2018-12-03T19:51:18.109Z,7.92
2018-12-03T19:53:45.867Z,7.99
2018-12-03T19:56:13.886Z,8.06
2018-12-03T19:58:45.444Z,8.25
2018-12-03T20:01:14.643Z,8.18
2018-12-03T20:03:42.759Z,8.29
2018-12-03T20:06:11.235Z,8.16
2018-12-03T20:08:39.064Z,8.33
2018-12-03T20:11:08.046Z,8.20
2018-12-03T20:13:36.843Z,8.25
2018-12-03T20:16:04.662Z,8.25
2018-12-03T20:18:33.130Z,8.16
2018-12-03T20:21:00.908Z,8.01
2018-12-03T20:23:28.602Z,7.95
2018-12-03T20:25:59.600Z,7.84
2018-12-03T20:28:27.484Z,7.72
2018-12-03T20:30:58.422Z,7.68
2018-12-03T20:33:27.818Z,7.84
2018-12-03T20:35:57.188Z,7.61
2018-12-03T20:38:25.964Z,7.89
2018-12-03T20:40:54.758Z,7.55
2018-12-03T20:43:22.909Z,7.81
2018-12-03T20:45:55.899Z,7.60
2018-12-03T20:48:27.119Z,7.30
2018-12-03T20:50:59.613Z,7.72
2018-12-03T20:53:28.702Z,8.02
2018-12-03T20:55:56.449Z,8.12
2018-12-03T20:58:26.553Z,7.84
2018-12-03T21:01:03.566Z,8.15
2018-12-03T21:03:31.169Z,8.23
2018-12-03T21:05:59.746Z,8.24
2018-12-03T21:08:28.093Z,7.87
2018-12-03T21:10:55.684Z,7.83
2018-12-03T21:13:24.331Z,7.93
2018-12-03T21:15:53.739Z,7.99
2018-12-03T21:18:21.596Z,8.26
2018-12-03T21:20:50.095Z,8.09
2018-12-03T21:23:18.295Z,8.26
2018-12-03T21:25:45.928Z,8.32
2018-12-03T21:28:13.658Z,8.12
2018-12-03T21:30:41.270Z,8.33
2018-12-03T21:33:08.843Z,8.34
2018-12-03T21:35:38.155Z,8.28
2018-12-03T21:38:05.929Z,7.98
2018-12-03T21:40:36.063Z,8.34
2018-12-03T21:43:03.836Z,8.40
2018-12-03T21:45:31.644Z,8.40
2018-12-03T21:47:59.744Z,8.31
2018-12-03T21:50:27.446Z,8.30
2018-12-03T21:52:55.086Z,8.42
2018-12-03T21:55:24.704Z,8.40
2018-12-03T21:57:54.175Z,8.45
2018-12-03T22:00:21.919Z,8.48
2018-12-03T22:02:53.247Z,8.39
2018-12-03T22:05:20.922Z,8.21
2018-12-03T22:07:48.767Z,8.27
2018-12-03T22:10:17.146Z,7.93
2018-12-03T22:12:44.877Z,8.23
2018-12-03T22:15:13.018Z,8.13
2018-12-03T22:17:41.521Z,8.32
2018-12-03T22:20:09.710Z,8.35
2018-12-03T22:22:37.312Z,8.23
2018-12-03T22:25:05.141Z,8.40
2018-12-03T22:27:33.112Z,8.41
2018-12-03T22:30:01.065Z,8.36
2018-12-03T22:32:30.002Z,8.41
2018-12-03T22:34:58.804Z,8.45
2018-12-03T22:37:27.906Z,8.48
2018-12-03T22:39:57.067Z,8.56
2018-12-03T22:42:25.827Z,8.63
2018-12-03T22:44:54.179Z,8.63
2018-12-03T22:47:22.228Z,8.67
2018-12-03T22:49:50.246Z,8.69
2018-12-03T22:52:18.313Z,8.63
2018-12-03T22:54:46.334Z,8.72
2018-12-03T22:57:14.512Z,8.70
2018-12-03T22:59:42.742Z,8.69
2018-12-03T23:02:11.414Z,8.76
2018-12-03T23:04:39.938Z,8.79
2018-12-03T23:07:08.628Z,8.78
2018-12-03T23:09:36.546Z,8.68
2018-12-03T23:12:04.560Z,8.70
2018-12-03T23:14:33.058Z,8.72
2018-12-03T23:17:01.561Z,8.74
2018-12-03T23:19:30.359Z,8.79
2018-12-03T23:21:58.127Z,8.76
2018-12-03T23:24:26.302Z,8.72
2018-12-03T23:26:54.011Z,8.67
2018-12-03T23:29:22.279Z,8.61
2018-12-03T23:31:50.450Z,8.60
2018-12-03T23:34:18.762Z,8.58
2018-12-03T23:36:47.886Z,8.59
2018-12-03T23:39:16.082Z,8.54
2018-12-03T23:41:45.049Z,8.56
2018-12-03T23:44:13.567Z,8.57
2018-12-03T23:46:42.224Z,8.54
2018-12-03T23:49:10.569Z,8.54
2018-12-03T23:51:38.561Z,8.58
2018-12-03T23:54:07.182Z,8.56
2018-12-03T23:56:36.634Z,8.54
2018-12-03T23:59:05.526Z,8.59
